Montreal-Nord, Canada
Current Conditions -  °F | °C
As of 3:40 AM on Sunday 23 Nov 2014 (Local Time) from CYUL Reporting Station
Haze Haze  
Wind Chill: 33°   Ceiling: 400
Heat Index: 39°   Visibility: 4mi
Dew Point: 37°   Wind: 9mph
Humidity: 93%   Direction: 230°SW
Pressure: 29.93"   Gusts: NA
Location:  45.6°N, 73.62°W
Report Text: CYUL 230840Z 23008KT 4SM BR OVC004 04/03 A2993 RMK ST8 SLP138
Loading
Personal Weather Stations






























Interactive Weather Map New forecast layout! Learn more

10-Day Weather Forecast

Advertisements
Track Severe Weather on mobile